Time;durP1;ratioP1;P1;durP2;ratioP2;P2;SDS_P1;SDS_P2;PMS_P1;PMS_P2;Temp;Humidity;BMP_temperature;BMP_pressure;BME280_temperature;BME280_humidity;BME280_pressure;Samples;Min_cycle;Max_cycle;Signal;HPM_P1;HPM_P2
2021/11/13 00:00:23;;;;;;;15.63;12.95;;;1.00;99.90;;;;;;5050642;28;20201;-68
2021/11/13 00:02:50;;;;;;;18.77;13.52;;;1.00;99.90;;;;;;5050462;28;20256;-68
2021/11/13 00:05:18;;;;;;;17.30;13.95;;;0.90;99.90;;;;;;5050385;28;20235;-68
2021/11/13 00:07:44;;;;;;;15.32;13.45;;;0.90;99.90;;;;;;5050346;28;20232;-68
2021/11/13 00:10:15;;;;;;;16.70;13.05;;;0.90;99.90;;;;;;5050204;28;20687;-68
2021/11/13 00:12:43;;;;;;;16.10;13.27;;;0.90;99.90;;;;;;5050602;28;20292;-68
2021/11/13 00:15:11;;;;;;;18.20;13.65;;;0.90;99.90;;;;;;5050454;28;20309;-68
2021/11/13 00:17:39;;;;;;;14.75;13.15;;;0.80;99.90;;;;;;5050078;28;20221;-68
2021/11/13 00:20:07;;;;;;;14.55;12.48;;;0.80;99.90;;;;;;5050284;28;20208;-68
2021/11/13 00:22:34;;;;;;;17.05;14.10;;;0.80;99.90;;;;;;5050634;28;20205;-68
2021/11/13 00:25:00;;;;;;;16.10;12.82;;;0.80;99.90;;;;;;5050077;28;20201;-68
2021/11/13 00:27:30;;;;;;;17.45;12.95;;;0.80;99.90;;;;;;5049990;28;20243;-68
2021/11/13 00:29:57;;;;;;;14.02;12.55;;;0.80;99.90;;;;;;5050310;28;20225;-68
2021/11/13 00:32:23;;;;;;;14.98;13.27;;;0.80;99.90;;;;;;5050062;28;20625;-68
2021/11/13 00:34:50;;;;;;;13.68;12.25;;;0.80;99.90;;;;;;5050375;28;20197;-69
2021/11/13 00:37:17;;;;;;;16.40;13.23;;;0.80;99.90;;;;;;5050545;28;20228;-68
2021/11/13 00:39:44;;;;;;;15.43;13.20;;;0.80;99.90;;;;;;5050442;28;20201;-68
2021/11/13 00:42:11;;;;;;;14.38;12.52;;;0.70;99.90;;;;;;5050278;28;20201;-68
2021/11/13 00:44:39;;;;;;;18.63;14.50;;;0.80;99.90;;;;;;5050447;28;20198;-68
2021/11/13 00:47:06;;;;;;;15.75;13.88;;;0.70;99.90;;;;;;5052989;28;20236;-68
2021/11/13 00:49:33;;;;;;;16.13;13.52;;;0.80;99.90;;;;;;5053625;28;20233;-68
2021/11/13 00:52:00;;;;;;;17.45;14.07;;;0.80;99.90;;;;;;5053768;28;20564;-69
2021/11/13 00:54:26;;;;;;;17.27;13.43;;;0.70;99.90;;;;;;5053399;28;20216;-68
2021/11/13 00:56:53;;;;;;;16.58;13.32;;;0.80;99.90;;;;;;5053334;28;20221;-68
2021/11/13 00:59:20;;;;;;;18.80;14.50;;;0.70;99.90;;;;;;5053433;28;20201;-68
2021/11/13 01:01:48;;;;;;;16.55;13.93;;;0.70;99.90;;;;;;5053569;28;20212;-68
2021/11/13 01:04:15;;;;;;;16.48;13.25;;;0.80;99.90;;;;;;5053325;28;20208;-68
2021/11/13 01:06:42;;;;;;;17.45;14.60;;;0.80;99.90;;;;;;5101674;22;20204;-95
2021/11/13 01:09:09;;;;;;;15.13;13.13;;;0.70;99.90;;;;;;5099660;28;20211;-95
2021/11/13 01:11:36;;;;;;;16.27;13.30;;;0.70;99.90;;;;;;5101015;22;20225;-71
2021/11/13 01:14:03;;;;;;;16.35;12.63;;;0.70;99.90;;;;;;5066200;28;20200;-71
2021/11/13 01:16:30;;;;;;;15.13;12.57;;;0.60;99.90;;;;;;5072060;28;20224;-70
2021/11/13 01:18:58;;;;;;;17.85;14.07;;;0.60;99.90;;;;;;5072757;28;20577;-71
2021/11/13 01:21:25;;;;;;;17.13;13.77;;;0.60;99.90;;;;;;5072540;28;20211;-70
2021/11/13 01:23:52;;;;;;;17.25;13.30;;;0.60;99.90;;;;;;5072962;28;20204;-70
2021/11/13 01:26:19;;;;;;;17.33;13.13;;;0.50;99.90;;;;;;5072341;28;20232;-71
2021/11/13 01:28:46;;;;;;;16.73;14.90;;;0.60;99.90;;;;;;5050611;28;20221;-70
2021/11/13 01:31:14;;;;;;;18.30;12.68;;;0.60;99.90;;;;;;5032492;28;20201;-71
2021/11/13 01:33:42;;;;;;;17.50;14.57;;;0.50;99.90;;;;;;5032666;28;20205;-71
2021/11/13 01:36:12;;;;;;;18.67;15.25;;;0.60;99.90;;;;;;5032004;28;20276;-71
2021/11/13 01:38:39;;;;;;;19.30;13.38;;;0.50;99.90;;;;;;5032371;28;20220;-70
2021/11/13 01:41:08;;;;;;;14.50;12.90;;;0.60;99.90;;;;;;5032516;28;20220;-71
2021/11/13 01:43:36;;;;;;;16.40;14.02;;;0.60;99.90;;;;;;5032541;28;20205;-70
2021/11/13 01:46:05;;;;;;;20.02;13.90;;;0.60;99.90;;;;;;5031614;28;20217;-71
2021/11/13 01:48:32;;;;;;;18.35;13.75;;;0.60;99.90;;;;;;5032312;28;20671;-71
2021/11/13 01:50:59;;;;;;;16.45;13.40;;;0.60;99.90;;;;;;5032322;28;20209;-70
2021/11/13 01:53:28;;;;;;;17.30;14.43;;;0.70;99.90;;;;;;5032067;28;20296;-71
2021/11/13 01:55:56;;;;;;;19.15;14.73;;;0.70;99.90;;;;;;5031552;28;20228;-71
2021/11/13 01:58:24;;;;;;;21.05;15.73;;;0.80;99.90;;;;;;5032006;28;20255;-71
2021/11/13 02:00:53;;;;;;;16.88;13.50;;;0.80;99.90;;;;;;5032116;28;20205;-70
2021/11/13 02:03:22;;;;;;;17.40;13.48;;;0.90;99.90;;;;;;5031816;28;20205;-71
2021/11/13 02:05:50;;;;;;;19.75;14.48;;;0.90;99.90;;;;;;5031503;28;20292;-70
2021/11/13 02:08:18;;;;;;;21.67;14.95;;;1.00;99.90;;;;;;5031863;28;20673;-70
2021/11/13 02:10:47;;;;;;;22.50;15.30;;;1.00;99.90;;;;;;5032016;28;20826;-71
2021/11/13 02:13:14;;;;;;;23.40;15.95;;;1.00;99.90;;;;;;5031602;28;20236;-70
2021/11/13 02:15:41;;;;;;;30.70;15.43;;;1.10;99.90;;;;;;5031389;28;20205;-69
2021/11/13 02:18:07;;;;;;;32.90;15.85;;;1.10;99.90;;;;;;5031589;28;20209;-70
2021/11/13 02:20:37;;;;;;;18.95;14.75;;;1.10;99.90;;;;;;5031676;28;20216;-71
2021/11/13 02:23:07;;;;;;;19.35;14.10;;;1.00;99.90;;;;;;5031662;28;20229;-70
2021/11/13 02:25:34;;;;;;;23.50;15.15;;;1.00;99.90;;;;;;5031428;28;20206;-69
2021/11/13 02:28:01;;;;;;;20.67;15.55;;;1.10;99.90;;;;;;5030994;28;20638;-71
2021/11/13 02:30:29;;;;;;;22.42;15.70;;;1.10;99.90;;;;;;5031186;28;20232;-70
2021/11/13 02:32:56;;;;;;;19.35;14.88;;;1.00;99.90;;;;;;5031611;28;20206;-71
2021/11/13 02:35:25;;;;;;;17.33;13.70;;;1.00;99.90;;;;;;5031321;28;20213;-71
2021/11/13 02:37:54;;;;;;;23.45;14.40;;;1.00;99.90;;;;;;5031195;28;20240;-71
2021/11/13 02:40:22;;;;;;;17.77;13.93;;;1.10;99.90;;;;;;5031341;28;20205;-69
2021/11/13 02:42:49;;;;;;;17.95;14.40;;;1.10;99.90;;;;;;5031559;28;20202;-70
2021/11/13 02:45:17;;;;;;;20.45;14.90;;;1.10;99.90;;;;;;5030972;28;20202;-70
2021/11/13 02:47:47;;;;;;;18.63;14.45;;;1.10;99.90;;;;;;5030594;28;20225;-70
2021/11/13 02:50:17;;;;;;;17.20;13.80;;;1.10;99.90;;;;;;5031118;28;20260;-70
2021/11/13 02:52:46;;;;;;;14.93;12.98;;;1.10;99.90;;;;;;5031523;28;20210;-71
2021/11/13 02:55:15;;;;;;;17.38;14.45;;;1.10;99.90;;;;;;5031088;28;20212;-70
2021/11/13 02:57:42;;;;;;;19.35;13.93;;;1.20;99.90;;;;;;5030910;28;20221;-71
2021/11/13 03:00:11;;;;;;;17.65;13.07;;;1.20;99.90;;;;;;5031161;28;20202;-70
2021/11/13 03:02:39;;;;;;;18.65;13.88;;;1.20;99.90;;;;;;5031395;28;20552;-71
2021/11/13 03:05:06;;;;;;;17.80;12.02;;;1.20;99.90;;;;;;5031067;28;20206;-71
2021/11/13 03:07:33;;;;;;;17.77;14.18;;;1.20;99.90;;;;;;5030665;28;20230;-70
2021/11/13 03:10:00;;;;;;;18.17;14.45;;;1.20;99.90;;;;;;5030875;28;20225;-70
2021/11/13 03:12:28;;;;;;;16.85;13.35;;;1.20;99.90;;;;;;5030791;28;20788;-70
2021/11/13 03:14:55;;;;;;;34.33;15.10;;;1.20;99.90;;;;;;5031038;28;20198;-70
2021/11/13 03:17:21;;;;;;;20.55;13.25;;;1.20;99.90;;;;;;5030427;28;20221;-70
2021/11/13 03:19:48;;;;;;;44.67;15.38;;;1.20;99.90;;;;;;5030988;28;20204;-70
2021/11/13 03:22:15;;;;;;;18.80;13.05;;;1.20;99.90;;;;;;5030795;28;20209;-70
2021/11/13 03:24:42;;;;;;;15.35;12.60;;;1.10;99.90;;;;;;5031013;28;20205;-70
2021/11/13 03:27:09;;;;;;;25.02;13.82;;;1.10;99.90;;;;;;5030790;28;20233;-70
2021/11/13 03:29:45;;;;;;;17.70;12.48;;;1.00;99.90;;;;;;5030753;28;20232;-71
2021/11/13 03:32:12;;;;;;;18.90;12.45;;;1.00;99.90;;;;;;5030774;28;20216;-71
2021/11/13 03:34:39;;;;;;;20.75;13.20;;;0.90;99.90;;;;;;5030933;28;20206;-70
2021/11/13 03:37:06;;;;;;;16.95;12.25;;;0.90;99.90;;;;;;5030256;28;20231;-71
2021/11/13 03:39:33;;;;;;;16.58;11.80;;;0.90;99.90;;;;;;5030699;28;20693;-71
2021/11/13 03:41:59;;;;;;;17.30;11.32;;;0.90;99.90;;;;;;5030946;28;20202;-70
2021/11/13 03:44:26;;;;;;;12.65;11.40;;;0.90;99.90;;;;;;5030469;28;20213;-71
2021/11/13 03:46:54;;;;;;;15.48;11.70;;;0.80;99.90;;;;;;5030078;28;20225;-71
2021/11/13 03:49:21;;;;;;;15.80;12.43;;;0.90;99.90;;;;;;5030373;28;20228;-70
2021/11/13 03:51:48;;;;;;;12.57;10.93;;;0.90;99.90;;;;;;5030489;28;20197;-70
2021/11/13 03:54:14;;;;;;;14.95;11.60;;;0.90;99.90;;;;;;5030063;28;20209;-71
2021/11/13 03:56:41;;;;;;;17.90;12.20;;;0.80;99.90;;;;;;5029921;28;20221;-70
2021/11/13 03:59:08;;;;;;;20.13;13.05;;;0.90;99.90;;;;;;5030292;28;20213;-70
2021/11/13 04:01:35;;;;;;;13.57;11.90;;;0.90;99.90;;;;;;5030295;28;20206;-70
2021/11/13 04:04:04;;;;;;;15.20;12.20;;;0.90;99.90;;;;;;5030373;28;20301;-70
2021/11/13 04:06:30;;;;;;;24.20;13.95;;;1.00;99.90;;;;;;5029496;28;20238;-71
2021/11/13 04:08:57;;;;;;;17.75;13.05;;;1.00;99.90;;;;;;5030265;28;20205;-69
2021/11/13 04:11:24;;;;;;;15.13;12.63;;;0.90;99.90;;;;;;5029895;28;20224;-70
2021/11/13 04:13:50;;;;;;;16.25;13.07;;;0.90;99.90;;;;;;5030145;28;20205;-71
2021/11/13 04:16:17;;;;;;;17.42;12.38;;;0.90;99.90;;;;;;5029411;28;20233;-71
2021/11/13 04:18:44;;;;;;;17.58;13.45;;;0.90;99.90;;;;;;5030341;28;20205;-71
2021/11/13 04:21:12;;;;;;;15.68;12.85;;;0.90;99.90;;;;;;5032347;28;20296;-71
2021/11/13 04:23:40;;;;;;;17.55;13.77;;;1.00;99.90;;;;;;5033935;28;20202;-70
2021/11/13 04:26:07;;;;;;;17.50;13.07;;;1.00;99.90;;;;;;5033360;28;20232;-71
2021/11/13 04:28:34;;;;;;;16.48;13.23;;;1.00;99.90;;;;;;5033703;28;20202;-71
2021/11/13 04:31:00;;;;;;;15.48;12.38;;;1.00;99.90;;;;;;5033811;28;20228;-71
2021/11/13 04:33:29;;;;;;;15.55;13.10;;;1.10;99.90;;;;;;5033568;28;20220;-70
2021/11/13 04:36:06;;;;;;;16.98;12.32;;;1.10;99.90;;;;;;5033767;28;20209;-70
2021/11/13 04:38:35;;;;;;;14.35;12.38;;;1.10;99.90;;;;;;5033769;28;20376;-71
2021/11/13 04:41:04;;;;;;;14.13;12.45;;;1.20;99.90;;;;;;5033816;28;20202;-70
2021/11/13 04:43:31;;;;;;;17.27;13.13;;;1.20;99.90;;;;;;5033258;28;20230;-70
2021/11/13 04:45:58;;;;;;;12.20;11.00;;;1.20;99.90;;;;;;5032952;28;20625;-69
2021/11/13 04:48:25;;;;;;;15.30;12.70;;;1.20;99.90;;;;;;5033332;28;20202;-71
2021/11/13 04:50:51;;;;;;;15.00;12.10;;;1.30;99.90;;;;;;5033484;28;20305;-70
2021/11/13 04:53:18;;;;;;;14.73;10.95;;;1.30;99.90;;;;;;5033154;28;20209;-69
2021/11/13 04:55:46;;;;;;;13.20;11.80;;;1.30;99.90;;;;;;5032943;28;20570;-70
2021/11/13 04:58:13;;;;;;;14.48;11.35;;;1.30;99.90;;;;;;5033105;28;20210;-69
2021/11/13 05:00:40;;;;;;;13.88;12.00;;;1.40;99.90;;;;;;5033308;28;20204;-70
2021/11/13 05:03:07;;;;;;;15.95;11.15;;;1.40;99.90;;;;;;5033237;28;20224;-70
2021/11/13 05:05:34;;;;;;;13.02;11.63;;;1.50;99.90;;;;;;5032950;28;20206;-70
2021/11/13 05:08:00;;;;;;;12.80;11.50;;;1.50;99.90;;;;;;5032863;28;20222;-70
2021/11/13 05:10:27;;;;;;;14.23;12.13;;;1.50;99.90;;;;;;5033012;28;20227;-70
2021/11/13 05:12:55;;;;;;;14.82;11.95;;;1.60;99.90;;;;;;5033048;28;20217;-70
2021/11/13 05:15:22;;;;;;;13.60;12.20;;;1.60;99.90;;;;;;5033049;28;20670;-70
2021/11/13 05:17:49;;;;;;;12.70;11.30;;;1.60;99.90;;;;;;5032818;28;20224;-70
2021/11/13 05:20:18;;;;;;;15.10;10.93;;;1.60;99.90;;;;;;5033607;28;20224;-70
2021/11/13 05:22:46;;;;;;;13.48;11.10;;;1.60;99.90;;;;;;5033592;28;20210;-70
2021/11/13 05:25:15;;;;;;;13.88;12.10;;;1.60;99.90;;;;;;5033535;28;20206;-70
2021/11/13 05:27:42;;;;;;;12.82;11.35;;;1.60;99.90;;;;;;5033232;28;20221;-71
2021/11/13 05:30:14;;;;;;;13.30;11.90;;;1.70;99.90;;;;;;5032996;28;20716;-71
2021/11/13 05:32:41;;;;;;;12.10;10.90;;;1.70;99.90;;;;;;5032351;28;20206;-71
2021/11/13 05:35:10;;;;;;;13.60;11.68;;;1.70;99.90;;;;;;5032762;28;20582;-71
2021/11/13 05:37:37;;;;;;;12.10;10.57;;;1.70;99.90;;;;;;5032173;28;20226;-71
2021/11/13 05:40:05;;;;;;;13.18;11.27;;;1.70;99.90;;;;;;5032621;28;20205;-70
2021/11/13 05:42:32;;;;;;;13.60;12.13;;;1.70;99.90;;;;;;5032464;28;20212;-69
2021/11/13 05:44:59;;;;;;;12.80;11.52;;;1.80;99.90;;;;;;5032536;28;20202;-70
2021/11/13 05:47:27;;;;;;;11.95;10.73;;;1.80;99.90;;;;;;5036349;28;20218;-71
2021/11/13 05:49:54;;;;;;;11.90;10.70;;;1.80;99.90;;;;;;5039926;28;20285;-71
2021/11/13 05:52:21;;;;;;;12.15;10.90;;;1.80;99.90;;;;;;5040901;28;20741;-70
2021/11/13 05:54:48;;;;;;;14.35;12.15;;;1.80;99.90;;;;;;5041698;28;20692;-69
2021/11/13 05:57:15;;;;;;;14.82;12.70;;;1.80;99.90;;;;;;5041137;28;20699;-70
2021/11/13 05:59:42;;;;;;;12.27;10.98;;;1.80;99.90;;;;;;5041846;28;20194;-70
2021/11/13 06:02:08;;;;;;;14.77;12.90;;;1.80;99.90;;;;;;5041039;28;20201;-71
2021/11/13 06:04:36;;;;;;;12.57;11.30;;;1.80;99.90;;;;;;5040719;28;20198;-71
2021/11/13 06:07:04;;;;;;;13.68;10.77;;;1.80;99.90;;;;;;5040541;28;20331;-71
2021/11/13 06:09:33;;;;;;;12.40;10.88;;;1.70;99.90;;;;;;5041621;28;20193;-70
2021/11/13 06:11:59;;;;;;;13.95;11.80;;;1.80;99.90;;;;;;5040146;28;20218;-70
2021/11/13 06:14:26;;;;;;;16.75;11.15;;;1.80;99.90;;;;;;5040431;28;20625;-69
2021/11/13 06:16:53;;;;;;;15.25;12.32;;;1.80;99.90;;;;;;5041968;28;20212;-71
2021/11/13 06:19:20;;;;;;;12.63;10.73;;;1.80;99.90;;;;;;5040907;28;20230;-71
2021/11/13 06:21:48;;;;;;;13.93;11.55;;;1.90;99.90;;;;;;5039690;28;20652;-70
2021/11/13 06:24:14;;;;;;;14.40;11.52;;;1.90;99.90;;;;;;5041138;28;20197;-70
2021/11/13 06:26:41;;;;;;;13.10;11.70;;;1.90;99.90;;;;;;5039937;28;20771;-71
2021/11/13 06:29:08;;;;;;;14.00;11.10;;;1.90;99.90;;;;;;5039572;28;20594;-70
2021/11/13 06:31:35;;;;;;;11.00;9.90;;;1.90;99.90;;;;;;5039779;28;20209;-70
2021/11/13 06:34:02;;;;;;;18.77;11.32;;;1.90;99.90;;;;;;5040298;28;20193;-70
2021/11/13 06:36:29;;;;;;;14.50;11.68;;;2.00;99.90;;;;;;5040338;28;20588;-71
2021/11/13 06:38:57;;;;;;;14.95;10.85;;;2.00;99.90;;;;;;5041049;28;20812;-71
2021/11/13 06:41:26;;;;;;;12.20;10.43;;;2.00;99.90;;;;;;5040004;28;20217;-71
2021/11/13 06:43:53;;;;;;;16.65;12.48;;;2.10;99.90;;;;;;5033063;28;20202;-71
2021/11/13 06:46:20;;;;;;;13.88;11.30;;;2.20;99.90;;;;;;5030588;28;20217;-71
2021/11/13 06:48:47;;;;;;;17.65;12.25;;;2.30;99.90;;;;;;5031449;28;20205;-71
2021/11/13 06:51:13;;;;;;;16.67;11.80;;;2.30;99.90;;;;;;5032574;28;20229;-70
2021/11/13 06:53:40;;;;;;;15.35;12.50;;;2.30;99.90;;;;;;5051015;28;20549;-71
2021/11/13 06:56:09;;;;;;;12.75;11.40;;;2.30;99.90;;;;;;5050425;28;20240;-69
2021/11/13 06:58:36;;;;;;;15.18;11.57;;;2.40;99.90;;;;;;5051038;28;20811;-69
2021/11/13 07:01:03;;;;;;;14.32;12.10;;;2.40;99.90;;;;;;5051084;28;20200;-70
2021/11/13 07:03:30;;;;;;;14.57;11.73;;;2.50;99.90;;;;;;5050796;28;20205;-71
2021/11/13 07:05:57;;;;;;;16.83;13.48;;;2.40;99.90;;;;;;5050479;28;20612;-71
2021/11/13 07:08:24;;;;;;;14.93;12.95;;;2.50;99.90;;;;;;5119644;22;20237;-65
2021/11/13 07:10:53;;;;;;;16.23;12.25;;;2.50;99.90;;;;;;5050617;28;20223;-65
2021/11/13 07:13:21;;;;;;;15.85;13.10;;;2.60;99.90;;;;;;5050459;28;20255;-65
2021/11/13 07:15:48;;;;;;;15.27;12.40;;;2.60;99.90;;;;;;5049976;28;20201;-66
2021/11/13 07:18:14;;;;;;;13.80;12.38;;;2.60;99.90;;;;;;5050693;28;20205;-66
2021/11/13 07:20:41;;;;;;;14.48;11.70;;;2.70;99.90;;;;;;5050682;28;20579;-66
2021/11/13 07:23:09;;;;;;;13.93;11.95;;;2.70;99.90;;;;;;5050252;28;20258;-66
2021/11/13 07:25:36;;;;;;;13.25;11.05;;;2.80;99.90;;;;;;5050335;28;20274;-66
2021/11/13 07:28:04;;;;;;;14.90;11.50;;;2.80;99.90;;;;;;5049849;28;20220;-66
2021/11/13 07:30:40;;;;;;;13.90;11.82;;;2.90;99.90;;;;;;5050319;28;20228;-66
2021/11/13 07:33:08;;;;;;;13.00;11.35;;;3.10;99.90;;;;;;5050271;28;20220;-66
2021/11/13 07:35:36;;;;;;;15.95;12.52;;;3.30;99.90;;;;;;5050441;28;20204;-67
2021/11/13 07:38:03;;;;;;;16.83;13.95;;;3.30;99.90;;;;;;5049792;28;20720;-66
2021/11/13 07:40:30;;;;;;;15.35;12.07;;;3.30;99.90;;;;;;5050483;28;20707;-66
2021/11/13 07:42:57;;;;;;;13.00;11.07;;;3.30;99.90;;;;;;5049960;28;20207;-66
2021/11/13 07:45:24;;;;;;;12.85;11.55;;;3.30;99.90;;;;;;5048892;28;20926;-65
2021/11/13 07:47:52;;;;;;;14.05;11.30;;;3.30;99.90;;;;;;5048935;28;20227;-65
2021/11/13 07:50:19;;;;;;;16.40;12.10;;;3.30;99.90;;;;;;5050074;28;20212;-65
2021/11/13 07:52:46;;;;;;;14.48;11.00;;;3.30;99.90;;;;;;5049652;28;20209;-65
2021/11/13 07:55:16;;;;;;;13.15;11.43;;;3.40;99.90;;;;;;5052681;28;20556;-65
2021/11/13 07:57:43;;;;;;;13.13;11.68;;;3.40;99.90;;;;;;5053256;28;20224;-65
2021/11/13 08:00:13;;;;;;;18.02;11.45;;;3.40;99.90;;;;;;5054278;28;20200;-65
2021/11/13 08:02:40;;;;;;;13.25;11.80;;;3.40;99.90;;;;;;5053906;28;20193;-65
2021/11/13 08:05:09;;;;;;;13.32;11.20;;;3.40;99.90;;;;;;5053938;28;20211;-65
2021/11/13 08:07:36;;;;;;;13.43;11.75;;;3.50;99.90;;;;;;5053021;28;20228;-64
2021/11/13 08:10:04;;;;;;;13.38;10.82;;;3.60;99.90;;;;;;5053753;28;21052;-65
2021/11/13 08:12:31;;;;;;;12.80;10.85;;;3.70;99.90;;;;;;5049634;28;20240;-65
2021/11/13 08:14:58;;;;;;;14.60;12.00;;;3.80;99.90;;;;;;5033596;28;20710;-65
2021/11/13 08:17:25;;;;;;;18.13;12.93;;;3.90;99.90;;;;;;5033176;28;20605;-65
2021/11/13 08:19:51;;;;;;;17.10;12.18;;;4.10;99.90;;;;;;5041243;28;20201;-65
2021/11/13 08:22:19;;;;;;;13.32;9.63;;;4.20;99.90;;;;;;5043910;28;20201;-66
2021/11/13 08:24:46;;;;;;;11.75;10.25;;;4.40;99.90;;;;;;5042489;28;20197;-66
2021/11/13 08:27:13;;;;;;;10.52;8.85;;;4.60;99.90;;;;;;5053255;28;20255;-65
2021/11/13 08:29:40;;;;;;;10.10;8.10;;;5.00;99.90;;;;;;5053493;28;20205;-66
2021/11/13 08:32:07;;;;;;;10.63;9.40;;;5.40;99.90;;;;;;5053470;28;20225;-66
2021/11/13 08:34:35;;;;;;;10.18;8.27;;;5.90;99.90;;;;;;5053452;28;20200;-65
2021/11/13 08:37:03;;;;;;;9.18;8.07;;;6.20;99.90;;;;;;5052354;28;20247;-66
2021/11/13 08:39:34;;;;;;;9.10;7.93;;;6.30;99.90;;;;;;5053411;28;20208;-65
2021/11/13 08:42:02;;;;;;;9.45;7.90;;;6.20;99.90;;;;;;5053373;28;20201;-66
2021/11/13 08:44:29;;;;;;;8.55;7.57;;;6.20;99.90;;;;;;5053285;28;20201;-66
2021/11/13 08:46:56;;;;;;;8.27;7.38;;;6.20;99.90;;;;;;5052300;28;20275;-65
2021/11/13 08:49:23;;;;;;;7.95;7.15;;;6.20;99.90;;;;;;5047323;28;20224;-66
2021/11/13 08:51:50;;;;;;;7.25;6.55;;;6.20;99.90;;;;;;5052361;28;20244;-66
2021/11/13 08:54:17;;;;;;;6.97;6.28;;;6.20;99.90;;;;;;5053553;28;20197;-67
2021/11/13 08:56:45;;;;;;;7.88;6.95;;;6.00;99.90;;;;;;5052669;28;20653;-67
2021/11/13 08:59:12;;;;;;;8.57;6.88;;;6.00;99.90;;;;;;5053518;28;20211;-66
2021/11/13 09:01:39;;;;;;;6.95;6.25;;;6.10;99.90;;;;;;5053293;28;20212;-67
2021/11/13 09:04:06;;;;;;;9.05;7.45;;;6.00;99.90;;;;;;5046238;28;20194;-67
2021/11/13 09:06:34;;;;;;;7.00;6.30;;;6.10;99.90;;;;;;5031781;28;20226;-67
2021/11/13 09:09:04;;;;;;;6.97;6.32;;;6.10;99.90;;;;;;5033152;28;20244;-67
2021/11/13 09:11:35;;;;;;;7.60;6.80;;;6.00;99.90;;;;;;5033382;28;20220;-66
2021/11/13 09:14:06;;;;;;;8.13;7.32;;;6.00;99.90;;;;;;5033265;28;20202;-67
2021/11/13 09:16:33;;;;;;;7.78;6.47;;;6.00;99.90;;;;;;5032810;28;20224;-66
2021/11/13 09:19:00;;;;;;;10.43;7.22;;;6.10;99.90;;;;;;5032931;28;20202;-66
2021/11/13 09:21:29;;;;;;;7.80;6.97;;;6.20;99.90;;;;;;5033692;28;20212;-67
2021/11/13 09:23:56;;;;;;;8.32;7.28;;;6.20;99.90;;;;;;5052346;28;20579;-66
2021/11/13 09:26:23;;;;;;;7.68;6.50;;;6.20;99.90;;;;;;5051611;28;20225;-67
2021/11/13 09:28:50;;;;;;;7.13;6.43;;;6.30;99.90;;;;;;5051508;28;20208;-67
2021/11/13 09:31:18;;;;;;;8.90;6.40;;;6.40;99.90;;;;;;5053174;28;20248;-66
2021/11/13 09:33:45;;;;;;;7.30;5.80;;;6.60;99.90;;;;;;5052706;28;20209;-66
2021/11/13 09:36:11;;;;;;;7.43;5.95;;;6.70;99.90;;;;;;5052113;28;20704;-66
2021/11/13 09:38:42;;;;;;;6.63;5.57;;;6.80;99.90;;;;;;5052594;28;20573;-67
2021/11/13 09:41:09;;;;;;;6.00;5.40;;;7.00;99.90;;;;;;5052729;28;20201;-66
2021/11/13 09:43:38;;;;;;;6.55;5.15;;;7.30;99.90;;;;;;5052729;28;20544;-67
2021/11/13 09:46:08;;;;;;;6.20;4.63;;;7.50;99.90;;;;;;5052000;28;20225;-67
2021/11/13 09:48:37;;;;;;;6.15;5.20;;;7.70;99.90;;;;;;5052650;28;20208;-66
2021/11/13 09:51:05;;;;;;;5.22;4.75;;;8.20;99.90;;;;;;5052280;28;20209;-67
2021/11/13 09:53:33;;;;;;;5.22;4.72;;;8.60;99.90;;;;;;5052369;28;20205;-67
2021/11/13 09:56:00;;;;;;;5.53;3.97;;;9.40;99.90;;;;;;5051520;28;20201;-66
2021/11/13 09:58:29;;;;;;;6.13;4.60;;;9.90;99.90;;;;;;5052378;28;20212;-66
2021/11/13 10:00:56;;;;;;;4.57;4.10;;;10.10;99.90;;;;;;5052098;28;20621;-67
2021/11/13 10:03:23;;;;;;;3.88;3.50;;;10.00;99.90;;;;;;5052259;28;20208;-65
2021/11/13 10:05:55;;;;;;;3.92;3.53;;;9.80;99.90;;;;;;5051315;28;20208;-65
2021/11/13 10:08:23;;;;;;;4.32;3.88;;;9.50;99.90;;;;;;5052091;28;20303;-65
2021/11/13 10:10:54;;;;;;;4.47;3.72;;;9.20;99.90;;;;;;5051833;28;20212;-65
2021/11/13 10:13:32;;;;;;;4.88;4.40;;;9.10;99.90;;;;;;5052047;28;20225;-65
2021/11/13 10:16:00;;;;;;;4.60;4.20;;;8.90;99.90;;;;;;5051151;28;20320;-65
2021/11/13 10:18:29;;;;;;;4.78;4.25;;;8.80;99.90;;;;;;5051858;28;20212;-65
2021/11/13 10:21:08;;;;;;;5.45;3.92;;;8.70;99.90;;;;;;5051895;28;20215;-65
2021/11/13 10:23:39;;;;;;;8.07;3.83;;;8.60;99.90;;;;;;5051863;28;20227;-65
2021/11/13 10:26:10;;;;;;;5.15;4.65;;;8.50;99.90;;;;;;5051103;28;20221;-65
2021/11/13 10:28:53;;;;;;;4.28;3.60;;;8.40;99.90;;;;;;5051655;28;20205;-65
2021/11/13 10:31:23;;;;;;;4.60;3.90;;;8.40;99.90;;;;;;5051772;28;20212;-65
2021/11/13 10:33:51;;;;;;;4.55;4.03;;;8.30;99.90;;;;;;5051085;28;20229;-65
2021/11/13 10:36:25;;;;;;;4.75;4.20;;;8.30;99.90;;;;;;5050676;28;20228;-65
2021/11/13 10:38:57;;;;;;;4.85;4.22;;;8.40;99.90;;;;;;5049834;28;20208;-69
2021/11/13 10:41:24;;;;;;;5.43;4.93;;;8.50;99.90;;;;;;5011204;28;20206;-68
2021/11/13 10:43:51;;;;;;;6.25;5.07;;;8.70;99.90;;;;;;5009022;28;20193;-68
2021/11/13 10:46:20;;;;;;;7.97;5.07;;;9.10;99.90;;;;;;5015880;28;20224;-65
2021/11/13 10:48:49;;;;;;;6.82;5.03;;;9.50;99.90;;;;;;5029034;28;20543;-65
2021/11/13 10:51:20;;;;;;;5.28;4.78;;;10.00;99.90;;;;;;5029998;28;20586;-65
2021/11/13 10:53:49;;;;;;;4.80;4.40;;;10.30;99.90;;;;;;5026734;28;20677;-66
2021/11/13 10:56:18;;;;;;;5.25;4.50;;;10.30;99.90;;;;;;5029405;28;20222;-65
2021/11/13 10:58:53;;;;;;;4.78;4.38;;;10.10;99.90;;;;;;5030008;28;20197;-65
2021/11/13 11:01:32;;;;;;;5.20;4.63;;;10.00;99.90;;;;;;5029987;28;20290;-67
2021/11/13 11:04:07;;;;;;;5.90;4.70;;;9.90;99.90;;;;;;5040806;28;20201;-66
2021/11/13 11:06:38;;;;;;;5.18;4.40;;;9.80;99.90;;;;;;5048933;28;20220;-66
2021/11/13 11:09:31;;;;;;;5.07;4.57;;;9.70;99.90;;;;;;5049419;28;20213;-66
2021/11/13 11:12:00;;;;;;;4.80;4.30;;;9.60;99.90;;;;;;5040033;28;20676;-66
2021/11/13 11:14:29;;;;;;;5.80;4.70;;;9.60;99.90;;;;;;5028728;28;21013;-66
2021/11/13 11:16:59;;;;;;;4.50;4.10;;;9.60;99.90;;;;;;5028761;28;20918;-66
2021/11/13 11:19:27;;;;;;;5.20;4.25;;;9.60;99.90;;;;;;5029431;28;20229;-66
2021/11/13 11:22:00;;;;;;;4.20;3.80;;;9.60;99.90;;;;;;5026638;28;20202;-66
2021/11/13 11:24:34;;;;;;;5.15;4.25;;;9.60;99.90;;;;;;5028738;28;20580;-66
2021/11/13 11:27:05;;;;;;;7.38;4.22;;;9.60;99.90;;;;;;5028345;28;20232;-66
2021/11/13 11:29:34;;;;;;;6.30;4.30;;;9.60;99.90;;;;;;5029496;28;20201;-68
2021/11/13 11:32:03;;;;;;;5.25;4.32;;;9.70;99.90;;;;;;5028320;28;20340;-68
2021/11/13 11:34:34;;;;;;;5.30;4.82;;;9.70;99.90;;;;;;5028920;28;20209;-68
2021/11/13 11:37:08;;;;;;;5.13;4.63;;;9.70;99.90;;;;;;5027323;28;20713;-68
2021/11/13 11:39:38;;;;;;;6.00;5.40;;;9.70;99.90;;;;;;5028925;28;20201;-68
2021/11/13 11:42:06;;;;;;;6.50;4.60;;;9.70;99.90;;;;;;5028784;28;20815;-68
2021/11/13 11:44:35;;;;;;;4.75;4.20;;;9.60;99.90;;;;;;5028433;28;20210;-68
2021/11/13 11:47:07;;;;;;;5.15;4.53;;;9.60;99.90;;;;;;5028228;28;20234;-68
2021/11/13 11:49:37;;;;;;;4.75;4.20;;;9.60;99.90;;;;;;5028872;28;20201;-68
2021/11/13 11:52:04;;;;;;;5.78;4.45;;;9.60;99.90;;;;;;5028402;28;20233;-68
2021/11/13 11:54:32;;;;;;;7.13;4.63;;;9.60;99.90;;;;;;5028528;28;20647;-68
2021/11/13 11:57:03;;;;;;;4.93;4.47;;;9.60;99.90;;;;;;5028029;28;20221;-68
2021/11/13 11:59:32;;;;;;;5.70;4.97;;;9.60;99.90;;;;;;5028193;28;20214;-67
2021/11/13 12:02:12;;;;;;;5.78;4.28;;;9.60;99.90;;;;;;5028576;28;20208;-68
2021/11/13 12:04:40;;;;;;;6.28;5.35;;;9.60;99.90;;;;;;5028543;28;20236;-68
2021/11/13 12:07:09;;;;;;;6.85;4.85;;;9.60;99.90;;;;;;5027557;28;20233;-68
2021/11/13 12:09:59;;;;;;;5.60;5.00;;;9.60;99.90;;;;;;5028860;28;20571;-67
2021/11/13 12:12:28;;;;;;;5.50;4.82;;;9.60;99.90;;;;;;5028534;28;20292;-68
2021/11/13 12:15:19;;;;;;;9.23;5.68;;;9.70;99.90;;;;;;5027411;28;20292;-68
2021/11/13 12:17:48;;;;;;;4.53;4.00;;;9.60;99.90;;;;;;5027817;28;20290;-68
2021/11/13 12:20:29;;;;;;;5.57;4.25;;;9.60;99.90;;;;;;5028376;28;20214;-67
2021/11/13 12:23:00;;;;;;;7.25;4.22;;;9.60;99.90;;;;;;5028399;28;20201;-67
2021/11/13 12:25:30;;;;;;;9.25;5.00;;;9.70;99.90;;;;;;5028527;28;20197;-67
2021/11/13 12:28:22;;;;;;;4.53;3.95;;;9.80;99.90;;;;;;5027340;28;20264;-68
2021/11/13 12:30:57;;;;;;;5.40;4.90;;;9.80;99.90;;;;;;5028331;28;20206;-68
2021/11/13 12:33:52;;;;;;;4.97;3.70;;;9.80;99.90;;;;;;5028370;28;20232;-67
2021/11/13 12:36:31;;;;;;;6.35;4.82;;;9.80;99.90;;;;;;5027349;28;20276;-67
2021/11/13 12:39:20;;;;;;;6.03;5.03;;;9.80;99.90;;;;;;5028260;28;20632;-68
2021/11/13 12:41:57;;;;;;;5.10;4.30;;;9.80;99.90;;;;;;5029603;28;20209;-67
2021/11/13 12:44:34;;;;;;;4.90;4.35;;;9.80;99.90;;;;;;5031466;28;20205;-67
2021/11/13 12:47:07;;;;;;;5.65;4.40;;;9.90;99.90;;;;;;5030961;28;20225;-67
2021/11/13 12:49:57;;;;;;;5.47;4.97;;;9.80;99.90;;;;;;5031965;28;20198;-67